sensor_id;sensor_type;location;lat;lon;timestamp;temperature;humidity
7844;DHT22;3967;48.702;9.326;2022-08-03T00:00:20;22.70;92.10
7844;DHT22;3967;48.702;9.326;2022-08-03T00:02:49;22.60;92.40
7844;DHT22;3967;48.702;9.326;2022-08-03T00:05:16;22.60;92.50
7844;DHT22;3967;48.702;9.326;2022-08-03T00:07:43;22.70;92.40
7844;DHT22;3967;48.702;9.326;2022-08-03T00:10:10;22.50;92.50
7844;DHT22;3967;48.702;9.326;2022-08-03T00:12:38;22.60;92.50
7844;DHT22;3967;48.702;9.326;2022-08-03T00:15:05;22.60;92.40
7844;DHT22;3967;48.702;9.326;2022-08-03T00:17:36;22.50;92.50
7844;DHT22;3967;48.702;9.326;2022-08-03T00:20:20;22.60;92.50
7844;DHT22;3967;48.702;9.326;2022-08-03T00:22:47;22.50;92.60
7844;DHT22;3967;48.702;9.326;2022-08-03T00:25:14;22.40;92.90
7844;DHT22;3967;48.702;9.326;2022-08-03T00:27:41;22.40;92.90
7844;DHT22;3967;48.702;9.326;2022-08-03T00:30:08;22.40;93.10
7844;DHT22;3967;48.702;9.326;2022-08-03T00:32:35;22.30;93.30
7844;DHT22;3967;48.702;9.326;2022-08-03T00:35:04;22.30;93.60
7844;DHT22;3967;48.702;9.326;2022-08-03T00:37:36;22.20;93.80
7844;DHT22;3967;48.702;9.326;2022-08-03T00:40:12;22.10;94.30
7844;DHT22;3967;48.702;9.326;2022-08-03T00:45:27;22.10;94.70
7844;DHT22;3967;48.702;9.326;2022-08-03T00:47:55;22.10;94.60
7844;DHT22;3967;48.702;9.326;2022-08-03T00:50:23;22.10;94.50
7844;DHT22;3967;48.702;9.326;2022-08-03T00:52:52;22.10;94.50
7844;DHT22;3967;48.702;9.326;2022-08-03T00:55:19;22.10;94.40
7844;DHT22;3967;48.702;9.326;2022-08-03T00:57:46;22.10;94.40
7844;DHT22;3967;48.702;9.326;2022-08-03T01:00:16;22.10;94.50
7844;DHT22;3967;48.702;9.326;2022-08-03T01:02:44;22.00;94.70
7844;DHT22;3967;48.702;9.326;2022-08-03T01:05:10;22.00;94.90
7844;DHT22;3967;48.702;9.326;2022-08-03T01:13:07;21.60;95.70
7844;DHT22;3967;48.702;9.326;2022-08-03T01:19:27;21.60;96.30
7844;DHT22;3967;48.702;9.326;2022-08-03T01:27:53;21.30;96.80
7844;DHT22;3967;48.702;9.326;2022-08-03T01:30:27;21.40;96.90
7844;DHT22;3967;48.702;9.326;2022-08-03T01:33:01;21.40;96.80
7844;DHT22;3967;48.702;9.326;2022-08-03T01:35:44;21.40;96.90
7844;DHT22;3967;48.702;9.326;2022-08-03T01:38:15;21.40;96.70
7844;DHT22;3967;48.702;9.326;2022-08-03T01:40:45;21.40;96.60
7844;DHT22;3967;48.702;9.326;2022-08-03T01:43:15;21.30;96.60
7844;DHT22;3967;48.702;9.326;2022-08-03T01:46:04;21.10;96.80
7844;DHT22;3967;48.702;9.326;2022-08-03T01:48:35;21.10;97.20
7844;DHT22;3967;48.702;9.326;2022-08-03T01:51:02;21.10;97.30
7844;DHT22;3967;48.702;9.326;2022-08-03T01:53:31;21.10;97.30
7844;DHT22;3967;48.702;9.326;2022-08-03T01:55:59;21.20;97.40
7844;DHT22;3967;48.702;9.326;2022-08-03T01:58:28;21.10;97.20
7844;DHT22;3967;48.702;9.326;2022-08-03T02:00:56;21.00;97.40
7844;DHT22;3967;48.702;9.326;2022-08-03T02:03:28;20.90;97.70
7844;DHT22;3967;48.702;9.326;2022-08-03T02:05:57;20.90;97.60
7844;DHT22;3967;48.702;9.326;2022-08-03T02:08:48;20.90;97.70
7844;DHT22;3967;48.702;9.326;2022-08-03T02:11:16;20.90;97.80
7844;DHT22;3967;48.702;9.326;2022-08-03T02:13:45;20.90;97.90
7844;DHT22;3967;48.702;9.326;2022-08-03T02:16:13;20.90;97.90
7844;DHT22;3967;48.702;9.326;2022-08-03T02:18:41;20.90;97.80
7844;DHT22;3967;48.702;9.326;2022-08-03T02:21:09;20.80;98.00
7844;DHT22;3967;48.702;9.326;2022-08-03T02:23:57;20.60;98.30
7844;DHT22;3967;48.702;9.326;2022-08-03T02:26:28;20.60;98.30
7844;DHT22;3967;48.702;9.326;2022-08-03T02:28:56;20.60;98.50
7844;DHT22;3967;48.702;9.326;2022-08-03T02:31:28;20.70;98.30
7844;DHT22;3967;48.702;9.326;2022-08-03T02:33:59;20.60;98.20
7844;DHT22;3967;48.702;9.326;2022-08-03T02:36:29;20.70;98.20
7844;DHT22;3967;48.702;9.326;2022-08-03T02:38:59;20.70;98.20
7844;DHT22;3967;48.702;9.326;2022-08-03T02:41:37;20.70;98.10
7844;DHT22;3967;48.702;9.326;2022-08-03T02:44:08;20.60;98.40
7844;DHT22;3967;48.702;9.326;2022-08-03T02:46:43;20.50;98.60
7844;DHT22;3967;48.702;9.326;2022-08-03T02:49:12;20.50;98.70
7844;DHT22;3967;48.702;9.326;2022-08-03T02:52:00;20.60;98.70
7844;DHT22;3967;48.702;9.326;2022-08-03T02:54:28;20.60;98.70
7844;DHT22;3967;48.702;9.326;2022-08-03T02:56:56;20.50;98.70
7844;DHT22;3967;48.702;9.326;2022-08-03T02:59:25;20.50;98.70
7844;DHT22;3967;48.702;9.326;2022-08-03T03:01:54;20.50;98.70
7844;DHT22;3967;48.702;9.326;2022-08-03T03:04:21;20.40;98.70
7844;DHT22;3967;48.702;9.326;2022-08-03T03:06:59;20.30;99.10
7844;DHT22;3967;48.702;9.326;2022-08-03T03:09:31;20.30;99.30
7844;DHT22;3967;48.702;9.326;2022-08-03T03:12:09;20.30;99.30
7844;DHT22;3967;48.702;9.326;2022-08-03T03:14:36;20.40;98.90
7844;DHT22;3967;48.702;9.326;2022-08-03T03:17:05;20.40;98.80
7844;DHT22;3967;48.702;9.326;2022-08-03T03:19:32;20.50;98.50
7844;DHT22;3967;48.702;9.326;2022-08-03T03:22:01;20.50;98.30
7844;DHT22;3967;48.702;9.326;2022-08-03T03:24:29;20.40;98.40
7844;DHT22;3967;48.702;9.326;2022-08-03T03:26:56;20.30;98.70
7844;DHT22;3967;48.702;9.326;2022-08-03T03:29:23;20.20;99.10
7844;DHT22;3967;48.702;9.326;2022-08-03T03:31:51;20.20;99.10
7844;DHT22;3967;48.702;9.326;2022-08-03T03:34:19;20.20;99.40
7844;DHT22;3967;48.702;9.326;2022-08-03T03:36:46;20.00;99.50
7844;DHT22;3967;48.702;9.326;2022-08-03T03:39:13;20.00;99.70
7844;DHT22;3967;48.702;9.326;2022-08-03T03:41:42;20.00;99.90
7844;DHT22;3967;48.702;9.326;2022-08-03T03:44:09;19.90;99.90
7844;DHT22;3967;48.702;9.326;2022-08-03T03:46:37;19.90;99.90
7844;DHT22;3967;48.702;9.326;2022-08-03T03:49:05;19.90;99.90
7844;DHT22;3967;48.702;9.326;2022-08-03T03:51:33;19.80;99.90
7844;DHT22;3967;48.702;9.326;2022-08-03T03:54:02;19.80;99.90
7844;DHT22;3967;48.702;9.326;2022-08-03T03:56:29;19.90;99.90
7844;DHT22;3967;48.702;9.326;2022-08-03T03:58:56;19.90;99.90
7844;DHT22;3967;48.702;9.326;2022-08-03T04:01:22;19.90;99.90
7844;DHT22;3967;48.702;9.326;2022-08-03T04:03:49;19.90;99.90
7844;DHT22;3967;48.702;9.326;2022-08-03T04:06:17;19.90;99.90
7844;DHT22;3967;48.702;9.326;2022-08-03T04:09:03;19.80;99.90
7844;DHT22;3967;48.702;9.326;2022-08-03T04:11:54;19.80;99.90
7844;DHT22;3967;48.702;9.326;2022-08-03T04:14:27;19.70;99.90
7844;DHT22;3967;48.702;9.326;2022-08-03T04:17:02;19.60;99.90
7844;DHT22;3967;48.702;9.326;2022-08-03T04:19:35;19.70;99.90
7844;DHT22;3967;48.702;9.326;2022-08-03T04:22:06;19.80;99.90
7844;DHT22;3967;48.702;9.326;2022-08-03T04:24:40;19.70;99.90
7844;DHT22;3967;48.702;9.326;2022-08-03T04:27:10;19.70;99.90
7844;DHT22;3967;48.702;9.326;2022-08-03T04:29:41;19.50;99.90
7844;DHT22;3967;48.702;9.326;2022-08-03T04:32:14;19.50;99.90
7844;DHT22;3967;48.702;9.326;2022-08-03T04:34:42;19.60;99.90
7844;DHT22;3967;48.702;9.326;2022-08-03T04:37:40;19.60;99.90
7844;DHT22;3967;48.702;9.326;2022-08-03T04:40:13;19.50;99.90
7844;DHT22;3967;48.702;9.326;2022-08-03T04:42:42;19.60;99.90
7844;DHT22;3967;48.702;9.326;2022-08-03T04:45:11;19.50;99.90
7844;DHT22;3967;48.702;9.326;2022-08-03T04:47:39;19.60;99.90
7844;DHT22;3967;48.702;9.326;2022-08-03T04:50:06;19.70;99.90
7844;DHT22;3967;48.702;9.326;2022-08-03T04:52:39;19.60;99.90
7844;DHT22;3967;48.702;9.326;2022-08-03T04:55:06;19.60;99.90
7844;DHT22;3967;48.702;9.326;2022-08-03T04:57:33;19.60;99.90
7844;DHT22;3967;48.702;9.326;2022-08-03T04:59:59;19.60;99.90
7844;DHT22;3967;48.702;9.326;2022-08-03T05:02:29;19.70;99.90
7844;DHT22;3967;48.702;9.326;2022-08-03T05:04:58;19.80;99.90
7844;DHT22;3967;48.702;9.326;2022-08-03T05:07:25;19.70;99.90
7844;DHT22;3967;48.702;9.326;2022-08-03T05:10:01;19.60;99.90
7844;DHT22;3967;48.702;9.326;2022-08-03T05:12:29;19.60;99.90
7844;DHT22;3967;48.702;9.326;2022-08-03T05:14:59;19.70;99.90
7844;DHT22;3967;48.702;9.326;2022-08-03T05:17:26;19.70;99.90
7844;DHT22;3967;48.702;9.326;2022-08-03T05:19:53;19.70;99.90
7844;DHT22;3967;48.702;9.326;2022-08-03T05:22:21;19.70;99.90
7844;DHT22;3967;48.702;9.326;2022-08-03T05:24:48;19.70;99.90
7844;DHT22;3967;48.702;9.326;2022-08-03T05:27:15;19.70;99.90
7844;DHT22;3967;48.702;9.326;2022-08-03T05:29:45;19.70;99.90
7844;DHT22;3967;48.702;9.326;2022-08-03T05:32:13;19.70;99.90
7844;DHT22;3967;48.702;9.326;2022-08-03T05:34:40;19.70;99.90
7844;DHT22;3967;48.702;9.326;2022-08-03T05:37:07;19.80;99.90
7844;DHT22;3967;48.702;9.326;2022-08-03T05:39:34;19.80;99.90
7844;DHT22;3967;48.702;9.326;2022-08-03T05:42:02;19.90;99.90
7844;DHT22;3967;48.702;9.326;2022-08-03T05:44:28;19.80;99.90
7844;DHT22;3967;48.702;9.326;2022-08-03T05:46:57;19.90;99.90
7844;DHT22;3967;48.702;9.326;2022-08-03T05:49:24;19.80;99.90
7844;DHT22;3967;48.702;9.326;2022-08-03T05:51:51;19.90;99.90
7844;DHT22;3967;48.702;9.326;2022-08-03T05:54:38;20.00;99.90
7844;DHT22;3967;48.702;9.326;2022-08-03T05:57:22;20.10;99.90
7844;DHT22;3967;48.702;9.326;2022-08-03T05:59:49;20.20;99.90
7844;DHT22;3967;48.702;9.326;2022-08-03T06:02:23;20.40;99.90
7844;DHT22;3967;48.702;9.326;2022-08-03T06:04:50;20.60;99.90
7844;DHT22;3967;48.702;9.326;2022-08-03T06:07:16;20.80;99.90
7844;DHT22;3967;48.702;9.326;2022-08-03T06:09:44;20.90;99.90
7844;DHT22;3967;48.702;9.326;2022-08-03T06:12:30;21.00;99.90
7844;DHT22;3967;48.702;9.326;2022-08-03T06:14:57;21.30;99.40
7844;DHT22;3967;48.702;9.326;2022-08-03T06:17:24;21.20;99.40
7844;DHT22;3967;48.702;9.326;2022-08-03T06:19:52;21.50;99.00
7844;DHT22;3967;48.702;9.326;2022-08-03T06:22:19;21.70;98.70
7844;DHT22;3967;48.702;9.326;2022-08-03T06:24:46;21.80;97.80
7844;DHT22;3967;48.702;9.326;2022-08-03T06:27:20;21.90;97.80
7844;DHT22;3967;48.702;9.326;2022-08-03T06:30:02;21.80;97.90
7844;DHT22;3967;48.702;9.326;2022-08-03T06:32:29;22.10;97.20
7844;DHT22;3967;48.702;9.326;2022-08-03T06:34:56;22.10;97.50
7844;DHT22;3967;48.702;9.326;2022-08-03T06:37:23;22.20;97.00
7844;DHT22;3967;48.702;9.326;2022-08-03T06:39:50;22.40;96.60
7844;DHT22;3967;48.702;9.326;2022-08-03T06:42:16;22.50;96.30
7844;DHT22;3967;48.702;9.326;2022-08-03T06:44:46;22.80;96.10
7844;DHT22;3967;48.702;9.326;2022-08-03T06:47:12;22.80;95.70
7844;DHT22;3967;48.702;9.326;2022-08-03T06:49:39;22.90;95.00
7844;DHT22;3967;48.702;9.326;2022-08-03T06:52:07;22.90;95.10
7844;DHT22;3967;48.702;9.326;2022-08-03T06:58:07;23.40;94.30
7844;DHT22;3967;48.702;9.326;2022-08-03T07:00:34;23.10;94.10
7844;DHT22;3967;48.702;9.326;2022-08-03T07:03:01;23.30;94.50
7844;DHT22;3967;48.702;9.326;2022-08-03T07:05:28;23.50;94.30
7844;DHT22;3967;48.702;9.326;2022-08-03T07:07:58;23.70;93.80
7844;DHT22;3967;48.702;9.326;2022-08-03T07:10:27;24.00;93.30
7844;DHT22;3967;48.702;9.326;2022-08-03T07:12:54;24.10;93.00
7844;DHT22;3967;48.702;9.326;2022-08-03T07:15:23;24.20;92.80
7844;DHT22;3967;48.702;9.326;2022-08-03T07:18:09;24.10;92.80
7844;DHT22;3967;48.702;9.326;2022-08-03T07:20:36;24.40;92.70
7844;DHT22;3967;48.702;9.326;2022-08-03T07:23:03;24.50;92.10
7844;DHT22;3967;48.702;9.326;2022-08-03T07:25:29;24.50;92.10
7844;DHT22;3967;48.702;9.326;2022-08-03T07:27:56;24.70;91.00
7844;DHT22;3967;48.702;9.326;2022-08-03T07:30:23;24.90;90.40
7844;DHT22;3967;48.702;9.326;2022-08-03T07:32:50;25.10;90.30
7844;DHT22;3967;48.702;9.326;2022-08-03T07:35:17;25.30;90.40
7844;DHT22;3967;48.702;9.326;2022-08-03T07:37:51;25.50;90.00
7844;DHT22;3967;48.702;9.326;2022-08-03T07:40:21;25.70;89.10
7844;DHT22;3967;48.702;9.326;2022-08-03T07:42:50;25.80;88.50
7844;DHT22;3967;48.702;9.326;2022-08-03T07:45:19;25.70;88.90
7844;DHT22;3967;48.702;9.326;2022-08-03T07:47:49;25.80;88.80
7844;DHT22;3967;48.702;9.326;2022-08-03T07:50:19;26.20;86.70
7844;DHT22;3967;48.702;9.326;2022-08-03T07:52:46;26.50;85.10
7844;DHT22;3967;48.702;9.326;2022-08-03T07:55:13;26.40;83.70
7844;DHT22;3967;48.702;9.326;2022-08-03T07:57:41;26.50;83.30
7844;DHT22;3967;48.702;9.326;2022-08-03T08:00:14;26.60;82.50
7844;DHT22;3967;48.702;9.326;2022-08-03T08:02:43;26.80;81.30
7844;DHT22;3967;48.702;9.326;2022-08-03T08:05:10;27.00;79.80
7844;DHT22;3967;48.702;9.326;2022-08-03T08:07:37;27.00;80.70
7844;DHT22;3967;48.702;9.326;2022-08-03T08:10:05;27.10;79.60
7844;DHT22;3967;48.702;9.326;2022-08-03T08:12:32;27.20;79.60
7844;DHT22;3967;48.702;9.326;2022-08-03T08:14:59;26.70;80.50
7844;DHT22;3967;48.702;9.326;2022-08-03T08:17:26;27.10;80.80
7844;DHT22;3967;48.702;9.326;2022-08-03T08:19:53;27.20;80.40
7844;DHT22;3967;48.702;9.326;2022-08-03T08:22:21;27.50;79.20
7844;DHT22;3967;48.702;9.326;2022-08-03T08:24:59;27.70;79.70
7844;DHT22;3967;48.702;9.326;2022-08-03T08:27:27;27.90;78.50
7844;DHT22;3967;48.702;9.326;2022-08-03T08:30:16;28.00;77.90
7844;DHT22;3967;48.702;9.326;2022-08-03T08:32:48;28.40;77.00
7844;DHT22;3967;48.702;9.326;2022-08-03T08:35:16;28.70;75.60
7844;DHT22;3967;48.702;9.326;2022-08-03T08:37:43;28.90;76.10
7844;DHT22;3967;48.702;9.326;2022-08-03T08:40:19;28.80;74.60
7844;DHT22;3967;48.702;9.326;2022-08-03T08:42:47;28.70;74.00
7844;DHT22;3967;48.702;9.326;2022-08-03T08:45:24;29.20;74.50
7844;DHT22;3967;48.702;9.326;2022-08-03T08:47:54;29.30;73.00
7844;DHT22;3967;48.702;9.326;2022-08-03T08:50:29;29.50;74.20
7844;DHT22;3967;48.702;9.326;2022-08-03T08:52:59;29.80;73.90
7844;DHT22;3967;48.702;9.326;2022-08-03T08:55:27;30.10;71.60
7844;DHT22;3967;48.702;9.326;2022-08-03T08:58:15;30.10;71.50
7844;DHT22;3967;48.702;9.326;2022-08-03T09:00:46;30.20;70.50
7844;DHT22;3967;48.702;9.326;2022-08-03T09:03:14;30.20;69.50
7844;DHT22;3967;48.702;9.326;2022-08-03T09:05:55;30.30;70.50
7844;DHT22;3967;48.702;9.326;2022-08-03T09:08:22;30.60;69.40
7844;DHT22;3967;48.702;9.326;2022-08-03T09:10:49;30.70;68.80
7844;DHT22;3967;48.702;9.326;2022-08-03T09:13:15;30.50;67.90
7844;DHT22;3967;48.702;9.326;2022-08-03T09:15:42;30.50;66.20
7844;DHT22;3967;48.702;9.326;2022-08-03T09:18:29;30.30;66.50
7844;DHT22;3967;48.702;9.326;2022-08-03T09:21:26;30.50;66.70
7844;DHT22;3967;48.702;9.326;2022-08-03T09:23:59;30.70;65.80
7844;DHT22;3967;48.702;9.326;2022-08-03T09:26:30;31.00;68.00
7844;DHT22;3967;48.702;9.326;2022-08-03T09:29:00;31.30;66.70
7844;DHT22;3967;48.702;9.326;2022-08-03T09:31:39;31.20;64.50
7844;DHT22;3967;48.702;9.326;2022-08-03T09:34:12;31.00;63.90
7844;DHT22;3967;48.702;9.326;2022-08-03T09:36:49;30.80;65.00
7844;DHT22;3967;48.702;9.326;2022-08-03T09:39:19;30.90;63.60
7844;DHT22;3967;48.702;9.326;2022-08-03T09:42:11;31.00;64.40
7844;DHT22;3967;48.702;9.326;2022-08-03T09:44:45;31.30;63.90
7844;DHT22;3967;48.702;9.326;2022-08-03T09:47:26;31.40;62.50
7844;DHT22;3967;48.702;9.326;2022-08-03T09:50:07;31.20;62.50
7844;DHT22;3967;48.702;9.326;2022-08-03T09:52:38;31.60;61.20
7844;DHT22;3967;48.702;9.326;2022-08-03T09:55:17;31.40;57.20
7844;DHT22;3967;48.702;9.326;2022-08-03T09:58:06;31.30;58.10
7844;DHT22;3967;48.702;9.326;2022-08-03T10:00:52;31.60;58.80
7844;DHT22;3967;48.702;9.326;2022-08-03T10:03:21;31.80;58.90
7844;DHT22;3967;48.702;9.326;2022-08-03T10:05:48;31.90;59.00
7844;DHT22;3967;48.702;9.326;2022-08-03T10:08:16;31.70;59.50
7844;DHT22;3967;48.702;9.326;2022-08-03T10:10:45;31.70;58.20
7844;DHT22;3967;48.702;9.326;2022-08-03T10:13:17;31.60;56.90
7844;DHT22;3967;48.702;9.326;2022-08-03T10:15:45;31.90;55.40
7844;DHT22;3967;48.702;9.326;2022-08-03T10:18:32;31.90;54.00
7844;DHT22;3967;48.702;9.326;2022-08-03T10:21:07;31.90;55.10
7844;DHT22;3967;48.702;9.326;2022-08-03T10:23:37;31.80;54.80
7844;DHT22;3967;48.702;9.326;2022-08-03T10:26:06;31.70;53.10
7844;DHT22;3967;48.702;9.326;2022-08-03T10:28:36;31.90;55.20
7844;DHT22;3967;48.702;9.326;2022-08-03T10:31:12;31.90;55.40
7844;DHT22;3967;48.702;9.326;2022-08-03T10:33:43;31.70;55.00
7844;DHT22;3967;48.702;9.326;2022-08-03T10:36:22;31.80;55.70
7844;DHT22;3967;48.702;9.326;2022-08-03T10:38:51;31.90;56.30
7844;DHT22;3967;48.702;9.326;2022-08-03T10:41:20;32.10;56.30
7844;DHT22;3967;48.702;9.326;2022-08-03T10:44:08;32.10;54.50
7844;DHT22;3967;48.702;9.326;2022-08-03T10:46:38;32.30;53.10
7844;DHT22;3967;48.702;9.326;2022-08-03T10:49:15;32.20;52.50
7844;DHT22;3967;48.702;9.326;2022-08-03T10:51:59;32.10;52.60
7844;DHT22;3967;48.702;9.326;2022-08-03T10:54:37;32.20;51.20
7844;DHT22;3967;48.702;9.326;2022-08-03T10:57:43;32.40;51.60
7844;DHT22;3967;48.702;9.326;2022-08-03T11:00:23;32.60;51.90
7844;DHT22;3967;48.702;9.326;2022-08-03T11:03:12;32.50;52.10
7844;DHT22;3967;48.702;9.326;2022-08-03T11:05:47;32.20;52.00
7844;DHT22;3967;48.702;9.326;2022-08-03T11:10:45;32.60;52.20
7844;DHT22;3967;48.702;9.326;2022-08-03T11:13:17;32.70;51.30
7844;DHT22;3967;48.702;9.326;2022-08-03T11:15:48;32.60;52.10
7844;DHT22;3967;48.702;9.326;2022-08-03T11:18:15;32.50;52.10
7844;DHT22;3967;48.702;9.326;2022-08-03T11:23:42;32.70;51.60
7844;DHT22;3967;48.702;9.326;2022-08-03T11:26:27;32.50;51.40
7844;DHT22;3967;48.702;9.326;2022-08-03T11:29:29;32.30;50.40
7844;DHT22;3967;48.702;9.326;2022-08-03T11:31:56;32.60;51.00
7844;DHT22;3967;48.702;9.326;2022-08-03T11:34:23;32.60;51.40
7844;DHT22;3967;48.702;9.326;2022-08-03T11:37:17;32.70;51.30
7844;DHT22;3967;48.702;9.326;2022-08-03T11:39:48;32.80;50.60
7844;DHT22;3967;48.702;9.326;2022-08-03T11:42:37;33.10;50.10
7844;DHT22;3967;48.702;9.326;2022-08-03T11:45:06;33.20;49.50
7844;DHT22;3967;48.702;9.326;2022-08-03T11:47:35;33.10;50.00
7844;DHT22;3967;48.702;9.326;2022-08-03T11:50:16;33.20;51.20
7844;DHT22;3967;48.702;9.326;2022-08-03T11:52:44;33.30;51.50
7844;DHT22;3967;48.702;9.326;2022-08-03T11:55:13;33.40;51.10
7844;DHT22;3967;48.702;9.326;2022-08-03T11:57:40;33.60;50.10
7844;DHT22;3967;48.702;9.326;2022-08-03T12:00:27;33.50;51.60
7844;DHT22;3967;48.702;9.326;2022-08-03T12:02:57;33.30;49.80
7844;DHT22;3967;48.702;9.326;2022-08-03T12:05:38;33.40;50.00
7844;DHT22;3967;48.702;9.326;2022-08-03T12:08:06;33.20;49.30
7844;DHT22;3967;48.702;9.326;2022-08-03T12:10:34;33.50;50.90
7844;DHT22;3967;48.702;9.326;2022-08-03T12:13:02;33.50;49.40
7844;DHT22;3967;48.702;9.326;2022-08-03T12:15:56;33.70;49.50
7844;DHT22;3967;48.702;9.326;2022-08-03T12:18:24;33.70;50.00
7844;DHT22;3967;48.702;9.326;2022-08-03T12:20:52;33.80;49.60
7844;DHT22;3967;48.702;9.326;2022-08-03T12:23:19;34.00;49.30
7844;DHT22;3967;48.702;9.326;2022-08-03T12:25:46;33.90;49.00
7844;DHT22;3967;48.702;9.326;2022-08-03T12:28:17;33.70;49.60
7844;DHT22;3967;48.702;9.326;2022-08-03T12:31:05;34.00;50.80
7844;DHT22;3967;48.702;9.326;2022-08-03T12:33:53;34.00;52.80
7844;DHT22;3967;48.702;9.326;2022-08-03T12:36:20;33.40;50.30
7844;DHT22;3967;48.702;9.326;2022-08-03T12:38:57;33.40;50.00
7844;DHT22;3967;48.702;9.326;2022-08-03T12:44:04;33.30;49.20
7844;DHT22;3967;48.702;9.326;2022-08-03T12:46:40;33.00;48.90
7844;DHT22;3967;48.702;9.326;2022-08-03T12:49:14;33.40;50.20
7844;DHT22;3967;48.702;9.326;2022-08-03T12:54:15;33.70;48.50
7844;DHT22;3967;48.702;9.326;2022-08-03T12:57:05;33.60;49.50
7844;DHT22;3967;48.702;9.326;2022-08-03T12:59:36;33.50;49.40
7844;DHT22;3967;48.702;9.326;2022-08-03T13:02:18;33.50;49.20
7844;DHT22;3967;48.702;9.326;2022-08-03T13:04:50;33.40;49.20
7844;DHT22;3967;48.702;9.326;2022-08-03T13:07:18;33.60;49.10
7844;DHT22;3967;48.702;9.326;2022-08-03T13:12:17;33.20;47.50
7844;DHT22;3967;48.702;9.326;2022-08-03T13:14:46;33.50;47.80
7844;DHT22;3967;48.702;9.326;2022-08-03T13:17:13;33.50;48.10
7844;DHT22;3967;48.702;9.326;2022-08-03T13:19:43;33.20;47.50
7844;DHT22;3967;48.702;9.326;2022-08-03T13:22:12;33.20;47.30
7844;DHT22;3967;48.702;9.326;2022-08-03T13:24:39;33.50;47.00
7844;DHT22;3967;48.702;9.326;2022-08-03T13:27:06;33.60;47.60
7844;DHT22;3967;48.702;9.326;2022-08-03T13:29:53;33.70;49.90
7844;DHT22;3967;48.702;9.326;2022-08-03T13:32:21;33.50;46.60
7844;DHT22;3967;48.702;9.326;2022-08-03T13:34:48;33.50;47.20
7844;DHT22;3967;48.702;9.326;2022-08-03T13:37:14;33.70;50.50
7844;DHT22;3967;48.702;9.326;2022-08-03T13:39:42;33.90;47.40
7844;DHT22;3967;48.702;9.326;2022-08-03T13:42:30;34.10;46.80
7844;DHT22;3967;48.702;9.326;2022-08-03T13:44:58;34.30;47.40
7844;DHT22;3967;48.702;9.326;2022-08-03T13:47:26;34.20;44.70
7844;DHT22;3967;48.702;9.326;2022-08-03T13:49:53;34.00;45.30
7844;DHT22;3967;48.702;9.326;2022-08-03T13:52:32;33.90;45.30
7844;DHT22;3967;48.702;9.326;2022-08-03T13:55:01;33.70;45.80
7844;DHT22;3967;48.702;9.326;2022-08-03T13:57:28;33.80;45.20
7844;DHT22;3967;48.702;9.326;2022-08-03T14:00:16;33.70;45.70
7844;DHT22;3967;48.702;9.326;2022-08-03T14:02:54;34.00;46.80
7844;DHT22;3967;48.702;9.326;2022-08-03T14:05:28;34.10;45.60
7844;DHT22;3967;48.702;9.326;2022-08-03T14:07:58;33.90;45.10
7844;DHT22;3967;48.702;9.326;2022-08-03T14:10:35;34.00;45.70
7844;DHT22;3967;48.702;9.326;2022-08-03T14:13:02;34.00;45.40
7844;DHT22;3967;48.702;9.326;2022-08-03T14:15:30;34.10;45.30
7844;DHT22;3967;48.702;9.326;2022-08-03T14:17:57;33.70;44.40
7844;DHT22;3967;48.702;9.326;2022-08-03T14:20:25;33.80;46.30
7844;DHT22;3967;48.702;9.326;2022-08-03T14:23:12;33.90;44.20
7844;DHT22;3967;48.702;9.326;2022-08-03T14:25:40;33.90;44.70
7844;DHT22;3967;48.702;9.326;2022-08-03T14:28:16;33.90;44.20
7844;DHT22;3967;48.702;9.326;2022-08-03T14:30:43;33.90;45.10
7844;DHT22;3967;48.702;9.326;2022-08-03T14:33:10;34.00;44.90
7844;DHT22;3967;48.702;9.326;2022-08-03T14:35:37;33.90;44.60
7844;DHT22;3967;48.702;9.326;2022-08-03T14:38:04;33.80;44.60
7844;DHT22;3967;48.702;9.326;2022-08-03T14:40:31;33.70;45.40
7844;DHT22;3967;48.702;9.326;2022-08-03T14:42:58;33.70;45.70
7844;DHT22;3967;48.702;9.326;2022-08-03T14:45:24;33.70;45.10
7844;DHT22;3967;48.702;9.326;2022-08-03T14:47:51;33.40;45.20
7844;DHT22;3967;48.702;9.326;2022-08-03T14:50:38;33.50;45.30
7844;DHT22;3967;48.702;9.326;2022-08-03T14:53:12;33.80;45.70
7844;DHT22;3967;48.702;9.326;2022-08-03T14:55:39;33.80;44.40
7844;DHT22;3967;48.702;9.326;2022-08-03T14:58:23;33.70;43.30
7844;DHT22;3967;48.702;9.326;2022-08-03T15:00:54;33.70;44.70
7844;DHT22;3967;48.702;9.326;2022-08-03T15:03:22;33.70;44.00
7844;DHT22;3967;48.702;9.326;2022-08-03T15:05:55;33.70;44.80
7844;DHT22;3967;48.702;9.326;2022-08-03T15:08:23;33.80;43.20
7844;DHT22;3967;48.702;9.326;2022-08-03T15:10:51;34.00;43.80
7844;DHT22;3967;48.702;9.326;2022-08-03T15:13:19;33.90;43.90
7844;DHT22;3967;48.702;9.326;2022-08-03T15:15:45;33.90;44.20
7844;DHT22;3967;48.702;9.326;2022-08-03T15:18:13;33.60;43.60
7844;DHT22;3967;48.702;9.326;2022-08-03T15:20:39;33.70;43.70
7844;DHT22;3967;48.702;9.326;2022-08-03T15:23:13;33.70;44.60
7844;DHT22;3967;48.702;9.326;2022-08-03T15:25:40;33.80;44.10
7844;DHT22;3967;48.702;9.326;2022-08-03T15:28:27;33.90;42.80
7844;DHT22;3967;48.702;9.326;2022-08-03T15:30:54;33.90;43.80
7844;DHT22;3967;48.702;9.326;2022-08-03T15:33:21;33.90;43.90
7844;DHT22;3967;48.702;9.326;2022-08-03T15:35:48;33.80;43.00
7844;DHT22;3967;48.702;9.326;2022-08-03T15:38:15;33.90;43.30
7844;DHT22;3967;48.702;9.326;2022-08-03T15:40:42;34.10;44.20
7844;DHT22;3967;48.702;9.326;2022-08-03T15:43:08;34.20;43.00
7844;DHT22;3967;48.702;9.326;2022-08-03T15:45:36;34.40;42.70
7844;DHT22;3967;48.702;9.326;2022-08-03T15:48:05;34.70;42.30
7844;DHT22;3967;48.702;9.326;2022-08-03T15:50:32;34.60;42.80
7844;DHT22;3967;48.702;9.326;2022-08-03T15:52:59;34.50;43.40
7844;DHT22;3967;48.702;9.326;2022-08-03T15:55:26;34.40;42.70
7844;DHT22;3967;48.702;9.326;2022-08-03T15:57:53;34.40;42.10
7844;DHT22;3967;48.702;9.326;2022-08-03T16:00:41;34.50;43.20
7844;DHT22;3967;48.702;9.326;2022-08-03T16:03:09;34.50;44.00
7844;DHT22;3967;48.702;9.326;2022-08-03T16:05:36;34.60;42.90
7844;DHT22;3967;48.702;9.326;2022-08-03T16:08:03;34.70;43.70
7844;DHT22;3967;48.702;9.326;2022-08-03T16:10:32;34.20;44.10
7844;DHT22;3967;48.702;9.326;2022-08-03T16:12:59;34.40;43.80
7844;DHT22;3967;48.702;9.326;2022-08-03T16:15:26;34.20;43.60
7844;DHT22;3967;48.702;9.326;2022-08-03T16:17:53;34.40;42.50
7844;DHT22;3967;48.702;9.326;2022-08-03T16:20:20;34.30;43.70
7844;DHT22;3967;48.702;9.326;2022-08-03T16:23:00;34.30;44.10
7844;DHT22;3967;48.702;9.326;2022-08-03T16:25:38;34.30;43.60
7844;DHT22;3967;48.702;9.326;2022-08-03T16:28:05;34.50;44.10
7844;DHT22;3967;48.702;9.326;2022-08-03T16:30:40;34.50;44.00
7844;DHT22;3967;48.702;9.326;2022-08-03T16:33:08;34.50;44.20
7844;DHT22;3967;48.702;9.326;2022-08-03T16:35:35;34.40;44.00
7844;DHT22;3967;48.702;9.326;2022-08-03T16:38:03;34.10;44.40
7844;DHT22;3967;48.702;9.326;2022-08-03T16:40:36;34.10;44.50
7844;DHT22;3967;48.702;9.326;2022-08-03T16:43:13;34.20;44.00
7844;DHT22;3967;48.702;9.326;2022-08-03T16:45:45;34.20;43.90
7844;DHT22;3967;48.702;9.326;2022-08-03T16:48:13;34.20;44.50
7844;DHT22;3967;48.702;9.326;2022-08-03T16:50:40;34.20;44.50
7844;DHT22;3967;48.702;9.326;2022-08-03T16:53:08;34.30;43.70
7844;DHT22;3967;48.702;9.326;2022-08-03T16:55:37;34.20;44.50
7844;DHT22;3967;48.702;9.326;2022-08-03T16:58:20;33.90;45.20
7844;DHT22;3967;48.702;9.326;2022-08-03T17:01:12;34.00;45.10
7844;DHT22;3967;48.702;9.326;2022-08-03T17:04:00;33.90;44.50